Time;durP1;ratioP1;P1;durP2;ratioP2;P2;SDS_P1;SDS_P2;PMS_P1;PMS_P2;Temp;Humidity;BMP_temperature;BMP_pressure;BME280_temperature;BME280_humidity;BME280_pressure;Samples;Min_cycle;Max_cycle;Signal;HPM_P1;HPM_P2
2023/03/15 00:02:02;;;;;;;5.25;0.98;;;;;;;-145.18;100.00;46677.97;5009758;28;20612;-74
2023/03/15 00:04:28;;;;;;;2.93;0.97;;;;;;;-145.18;100.00;46681.88;5010454;28;20046;-74
2023/03/15 00:06:53;;;;;;;4.57;1.23;;;;;;;-145.18;100.00;46679.94;5010095;28;20041;-74
2023/03/15 00:09:21;;;;;;;6.87;1.10;;;;;;;-145.18;100.00;46683.84;5010854;28;20130;-74
2023/03/15 00:11:47;;;;;;;7.18;1.48;;;;;;;-145.18;100.00;46687.75;5009922;28;20041;-75
2023/03/15 00:14:12;;;;;;;7.17;1.87;;;;;;;-145.18;100.00;46677.97;5009970;28;20029;-74
2023/03/15 00:16:38;;;;;;;6.35;1.70;;;;;;;-145.18;100.00;46679.94;5010174;28;20342;-75
2023/03/15 00:19:04;;;;;;;4.13;1.40;;;;;;;-145.18;100.00;46677.97;5010204;28;20030;-74
2023/03/15 00:21:29;;;;;;;7.93;2.13;;;;;;;-145.18;100.00;46679.94;5010278;28;20033;-74
2023/03/15 00:23:55;;;;;;;5.53;2.17;;;;;;;-145.18;100.00;46676.03;5010100;28;20026;-73
2023/03/15 00:26:21;;;;;;;5.37;1.80;;;;;;;-145.18;100.00;46676.03;5010274;28;20037;-73
2023/03/15 00:28:46;;;;;;;10.27;2.60;;;;;;;-145.18;100.00;46676.03;5007374;28;20029;-72
2023/03/15 00:31:18;;;;;;;7.37;1.50;;;;;;;-145.18;100.00;46687.75;4989960;28;20029;-72
2023/03/15 00:33:44;;;;;;;6.95;1.67;;;;;;;-145.18;100.00;46683.84;5009952;28;20041;-72
2023/03/15 00:36:10;;;;;;;6.03;2.22;;;;;;;-145.18;100.00;46681.88;5009464;28;20022;-73
2023/03/15 00:38:38;;;;;;;6.00;1.95;;;;;;;-145.18;100.00;46679.94;5010462;28;20049;-72
2023/03/15 00:41:12;;;;;;;5.82;4.03;;;;;;;-145.18;100.00;46681.88;5009380;28;20389;-72
2023/03/15 00:43:37;;;;;;;4.72;2.80;;;;;;;-145.18;100.00;46677.97;5009909;28;20041;-73
2023/03/15 00:46:04;;;;;;;5.87;2.87;;;;;;;-145.18;100.00;46676.03;4991848;28;20033;-72
2023/03/15 00:48:29;;;;;;;3.13;2.63;;;;;;;-145.18;100.00;46677.97;5009603;28;20058;-72
2023/03/15 00:51:06;;;;;;;3.77;2.53;;;;;;;-145.18;100.00;46677.97;5009541;28;20190;-72
2023/03/15 00:53:32;;;;;;;4.28;3.53;;;;;;;-145.18;100.00;46679.94;5009840;28;20447;-72
2023/03/15 00:55:59;;;;;;;4.97;3.05;;;;;;;-145.18;100.00;46679.94;5009555;28;20048;-73
2023/03/15 00:58:24;;;;;;;6.22;4.32;;;;;;;-145.18;100.00;46681.88;5009320;28;20110;-73
2023/03/15 01:00:50;;;;;;;4.90;4.40;;;;;;;-145.18;100.00;46674.06;5009654;28;20050;-73
2023/03/15 01:03:16;;;;;;;6.50;4.63;;;;;;;-145.18;100.00;46677.97;5009372;28;20554;-73
2023/03/15 01:05:41;;;;;;;5.00;4.50;;;;;;;-145.18;100.00;46676.03;4992096;28;20141;-73
2023/03/15 01:08:06;;;;;;;7.30;5.43;;;;;;;-145.18;100.00;46676.03;5009223;28;20038;-73
2023/03/15 01:10:34;;;;;;;7.37;5.70;;;;;;;-145.18;100.00;46674.06;5009696;28;20034;-73
2023/03/15 01:12:59;;;;;;;7.20;5.57;;;;;;;-145.18;100.00;46679.94;5008487;28;20041;-73
2023/03/15 01:15:25;;;;;;;7.17;6.27;;;;;;;-145.18;100.00;46676.03;5009537;28;20038;-73
2023/03/15 01:17:50;;;;;;;7.50;5.77;;;;;;;-145.18;100.00;46674.06;5008926;28;20033;-74
2023/03/15 01:20:16;;;;;;;7.10;5.67;;;;;;;-145.18;100.00;46677.97;5009620;28;20072;-74
2023/03/15 01:22:41;;;;;;;6.63;5.97;;;;;;;-145.18;100.00;46677.97;5008956;28;20029;-74
2023/03/15 01:25:08;;;;;;;9.00;5.87;;;;;;;-145.18;100.00;46674.06;5009333;28;20037;-74
2023/03/15 01:27:33;;;;;;;6.22;5.63;;;;;;;-145.18;100.00;46674.06;5006168;28;20393;-74
2023/03/15 01:29:59;;;;;;;8.27;5.33;;;;;;;-145.18;100.00;46672.13;5009173;28;20061;-74
2023/03/15 01:32:25;;;;;;;6.80;5.27;;;;;;;-145.18;100.00;46674.06;5008951;28;20030;-74
2023/03/15 01:34:50;;;;;;;9.48;5.18;;;;;;;-145.18;100.00;46679.94;5009333;28;20132;-74
2023/03/15 01:37:15;;;;;;;8.67;5.30;;;;;;;-145.18;100.00;46681.88;5008744;28;20554;-73
2023/03/15 01:39:41;;;;;;;8.50;4.73;;;;;;;-145.18;100.00;46677.97;5009067;28;20113;-73
2023/03/15 01:42:08;;;;;;;6.20;4.43;;;;;;;-145.18;100.00;46677.97;5008789;28;20395;-73
2023/03/15 01:44:50;;;;;;;8.13;4.60;;;;;;;-145.18;100.00;46670.16;5009376;28;20549;-73
2023/03/15 01:47:15;;;;;;;5.25;3.97;;;;;;;-145.18;100.00;46683.84;5011153;28;20026;-73
2023/03/15 01:49:43;;;;;;;7.20;4.30;;;;;;;-145.18;100.00;46674.06;5013227;28;20056;-73
2023/03/15 01:52:16;;;;;;;5.50;4.18;;;;;;;-145.18;100.00;46676.03;5012574;28;20548;-73
2023/03/15 01:54:51;;;;;;;7.40;4.68;;;;;;;-145.18;100.00;46674.06;5011562;28;20038;-74
2023/03/15 01:57:31;;;;;;;7.72;4.53;;;;;;;-145.18;100.00;46677.97;5013012;28;20431;-74
2023/03/15 02:02:56;;;;;;;7.95;4.20;;;;;;;-145.18;100.00;46679.94;5366897;23;20156;-73
2023/03/15 02:05:28;;;;;;;8.73;4.15;;;;;;;-145.18;100.00;46676.03;5033995;28;20392;-73
2023/03/15 02:07:54;;;;;;;7.70;4.22;;;;;;;-145.18;100.00;46676.03;5052400;28;20053;-73
2023/03/15 02:10:26;;;;;;;4.90;3.53;;;;;;;-145.18;100.00;46676.03;5033322;28;20113;-74
2023/03/15 02:12:54;;;;;;;6.13;3.33;;;;;;;-145.18;100.00;46681.88;5033227;28;20041;-74
2023/03/15 02:15:19;;;;;;;9.68;3.85;;;;;;;-145.18;100.00;46679.94;5016079;28;20113;-74
2023/03/15 02:17:47;;;;;;;7.30;4.03;;;;;;;-145.18;100.00;46677.97;5033339;28;20125;-73
2023/03/15 02:20:26;;;;;;;7.35;4.13;;;;;;;-145.18;100.00;46674.06;5052644;28;20021;-74
2023/03/15 02:23:02;;;;;;;7.60;4.28;;;;;;;-145.18;100.00;46681.88;5053239;28;20029;-73
2023/03/15 02:25:27;;;;;;;8.02;4.75;;;;;;;-145.18;100.00;46679.94;5053327;28;20476;-73
2023/03/15 02:27:54;;;;;;;7.03;4.27;;;;;;;-145.18;100.00;46685.78;5052879;28;20048;-73
2023/03/15 02:30:19;;;;;;;6.90;4.68;;;;;;;-145.18;100.00;46676.03;5033058;28;20084;-73
2023/03/15 02:32:45;;;;;;;10.17;4.43;;;;;;;-145.18;100.00;46677.97;5033131;28;20073;-72
2023/03/15 02:35:10;;;;;;;6.40;4.13;;;;;;;-145.18;100.00;46677.97;5034335;28;20049;-72
2023/03/15 02:37:36;;;;;;;6.33;4.70;;;;;;;-145.18;100.00;46676.03;5033769;28;20045;-73
2023/03/15 02:40:02;;;;;;;8.47;4.03;;;;;;;-145.18;100.00;46676.03;5053135;28;20041;-73
2023/03/15 02:42:28;;;;;;;6.68;4.47;;;;;;;-145.18;100.00;46677.97;5053084;28;20080;-73
2023/03/15 02:44:56;;;;;;;7.43;3.85;;;;;;;-145.18;100.00;46677.97;5052896;28;20040;-73
2023/03/15 02:47:31;;;;;;;7.80;4.35;;;;;;;-145.18;100.00;46674.06;5052982;28;20484;-73
2023/03/15 02:49:56;;;;;;;5.35;3.42;;;;;;;-145.18;100.00;46679.94;5033244;28;20026;-74
2023/03/15 02:52:22;;;;;;;7.53;3.67;;;;;;;-145.18;100.00;46677.97;5032860;28;20071;-73
2023/03/15 02:54:48;;;;;;;7.20;3.90;;;;;;;-145.18;100.00;46681.88;5032899;28;20029;-73
2023/03/15 02:57:17;;;;;;;8.17;3.80;;;;;;;-145.18;100.00;46676.03;5032274;28;20270;-73
2023/03/15 02:59:42;;;;;;;6.10;3.60;;;;;;;-145.18;100.00;46676.03;5050636;28;20025;-74
2023/03/15 03:02:10;;;;;;;6.93;3.77;;;;;;;-145.18;100.00;46676.03;5052376;28;20470;-73
2023/03/15 03:04:37;;;;;;;6.30;3.22;;;;;;;-145.18;100.00;46679.94;5052987;28;20025;-74
2023/03/15 03:07:03;;;;;;;7.65;4.30;;;;;;;-145.18;100.00;46677.97;5052533;28;20029;-74
2023/03/15 03:09:28;;;;;;;7.90;4.15;;;;;;;-145.18;100.00;46679.94;5036945;28;20126;-74
2023/03/15 03:11:54;;;;;;;6.33;3.80;;;;;;;-145.18;100.00;46674.06;5033158;28;20104;-74
2023/03/15 03:14:22;;;;;;;5.87;3.30;;;;;;;-145.18;100.00;46677.97;5032479;28;20032;-74
2023/03/15 03:16:48;;;;;;;7.20;3.72;;;;;;;-145.18;100.00;46670.16;5032717;28;20056;-74
2023/03/15 03:19:13;;;;;;;9.17;3.97;;;;;;;-145.18;100.00;46679.94;5045458;28;20749;-74
2023/03/15 03:21:42;;;;;;;9.40;3.13;;;;;;;-145.18;100.00;46681.88;5052875;28;20032;-74
2023/03/15 03:24:08;;;;;;;7.95;3.58;;;;;;;-145.18;100.00;46672.13;5052235;28;20108;-74
2023/03/15 03:26:33;;;;;;;4.43;2.80;;;;;;;-145.18;100.00;46672.13;5052548;28;20080;-74
2023/03/15 03:28:59;;;;;;;8.20;3.37;;;;;;;-145.18;100.00;46677.97;5038237;28;20073;-73
2023/03/15 03:31:26;;;;;;;7.57;2.50;;;;;;;-145.18;100.00;46677.97;5032734;28;20036;-73
2023/03/15 03:33:52;;;;;;;7.45;3.15;;;;;;;-145.18;100.00;46679.94;5032347;28;20048;-73
2023/03/15 03:36:18;;;;;;;6.20;2.53;;;;;;;-145.18;100.00;46677.97;5032091;28;20021;-73
2023/03/15 03:38:45;;;;;;;4.13;2.60;;;;;;;-145.18;100.00;46677.97;5042920;28;20025;-72
2023/03/15 03:41:12;;;;;;;6.28;2.40;;;;;;;-145.18;100.00;46683.84;5052015;28;20051;-72
2023/03/15 03:43:38;;;;;;;8.15;2.17;;;;;;;-145.18;100.00;46683.84;5051917;28;20175;-73
2023/03/15 03:46:04;;;;;;;6.97;2.43;;;;;;;-145.18;100.00;46683.84;5052064;28;20108;-73
2023/03/15 03:48:30;;;;;;;8.60;2.27;;;;;;;-145.18;100.00;46677.97;5040286;28;20149;-73
2023/03/15 03:50:55;;;;;;;8.73;2.30;;;;;;;-145.18;100.00;46687.75;5032076;28;20025;-73
2023/03/15 03:53:21;;;;;;;5.10;2.00;;;;;;;-145.18;100.00;46681.88;5031447;28;20298;-73
2023/03/15 03:55:46;;;;;;;8.90;2.33;;;;;;;-145.18;100.00;46674.06;5032080;28;20029;-73
2023/03/15 03:58:12;;;;;;;6.20;2.23;;;;;;;-145.18;100.00;46683.84;5021587;28;20068;-73
2023/03/15 04:00:38;;;;;;;5.57;2.03;;;;;;;-145.18;100.00;46681.88;5051714;28;20068;-73
2023/03/15 04:03:03;;;;;;;8.40;2.00;;;;;;;-145.18;100.00;46681.88;5051132;28;20053;-73
2023/03/15 04:05:29;;;;;;;8.27;1.90;;;;;;;-145.18;100.00;46683.84;5051521;28;20811;-73
2023/03/15 04:07:55;;;;;;;6.60;2.05;;;;;;;-145.18;100.00;46679.94;5041555;28;20034;-73
2023/03/15 04:10:25;;;;;;;8.03;2.10;;;;;;;-145.18;100.00;46685.78;5031430;28;20064;-73
2023/03/15 04:12:53;;;;;;;7.65;1.73;;;;;;;-145.18;100.00;46679.94;5031215;28;20432;-73
2023/03/15 04:15:21;;;;;;;8.00;2.10;;;;;;;-145.18;100.00;46677.97;5031002;28;20057;-73
2023/03/15 04:17:54;;;;;;;6.38;1.75;;;;;;;-145.18;100.00;46681.88;5038048;28;20068;-73
2023/03/15 04:20:21;;;;;;;4.20;1.60;;;;;;;-145.18;100.00;46676.03;5050877;28;20095;-73
2023/03/15 04:22:48;;;;;;;5.20;2.00;;;;;;;-145.18;100.00;46679.94;5051149;28;20056;-73
2023/03/15 04:25:15;;;;;;;7.68;2.10;;;;;;;-145.18;100.00;46681.88;5050984;28;20095;-73
2023/03/15 04:27:40;;;;;;;5.10;1.92;;;;;;;-145.18;100.00;46677.97;5044584;28;20482;-73
2023/03/15 04:30:07;;;;;;;9.33;1.90;;;;;;;-145.18;100.00;46677.97;5031097;28;20040;-73
2023/03/15 04:32:32;;;;;;;3.95;1.95;;;;;;;-145.18;100.00;46674.06;5030772;28;20037;-73
2023/03/15 04:34:57;;;;;;;8.57;2.23;;;;;;;-145.18;100.00;46677.97;5030471;28;20037;-73
2023/03/15 04:37:23;;;;;;;13.07;2.40;;;;;;;-145.18;100.00;46681.88;5032207;28;20029;-73
2023/03/15 04:39:48;;;;;;;6.00;1.90;;;;;;;-145.18;100.00;46677.97;5050945;28;20037;-72
2023/03/15 04:42:13;;;;;;;10.10;1.90;;;;;;;-145.18;100.00;46677.97;5050811;28;20025;-73
2023/03/15 04:44:39;;;;;;;10.43;2.20;;;;;;;-145.18;100.00;46677.97;5050575;28;20072;-73
2023/03/15 04:47:05;;;;;;;8.67;3.00;;;;;;;-145.18;100.00;46683.84;5049947;28;20029;-73
2023/03/15 04:49:30;;;;;;;9.43;3.40;;;;;;;-145.18;100.00;46679.94;5050646;28;20534;-73
2023/03/15 04:51:55;;;;;;;8.80;3.17;;;;;;;-145.18;100.00;46679.94;5050509;28;20040;-73
2023/03/15 04:54:22;;;;;;;7.03;3.40;;;;;;;-145.18;100.00;46670.16;5050503;28;20041;-73
2023/03/15 04:56:47;;;;;;;8.55;3.03;;;;;;;-145.18;100.00;46676.03;5047432;28;20033;-72
2023/03/15 04:59:13;;;;;;;13.03;2.70;;;;;;;-145.18;100.00;46676.03;5049985;28;20086;-72
2023/03/15 05:01:38;;;;;;;11.93;3.10;;;;;;;-145.18;100.00;46677.97;5050521;28;20033;-73
2023/03/15 05:04:03;;;;;;;9.40;2.90;;;;;;;-145.18;100.00;46679.94;5033520;28;20050;-73
2023/03/15 05:06:29;;;;;;;10.20;2.60;;;;;;;-145.18;100.00;46676.03;5030583;28;20160;-73
2023/03/15 05:08:54;;;;;;;6.97;1.90;;;;;;;-145.18;100.00;46676.03;5030214;28;20034;-73
2023/03/15 05:11:20;;;;;;;8.97;1.70;;;;;;;-145.18;100.00;46679.94;5030267;28;20033;-73
2023/03/15 05:13:45;;;;;;;10.30;1.80;;;;;;;-145.18;100.00;46681.88;5030079;28;20172;-73
2023/03/15 05:16:11;;;;;;;7.50;2.07;;;;;;;-145.18;100.00;46683.84;5038097;28;20041;-73
2023/03/15 05:18:36;;;;;;;10.67;1.87;;;;;;;-145.18;100.00;46681.88;5049996;28;20064;-73
2023/03/15 05:21:04;;;;;;;6.63;1.77;;;;;;;-145.18;100.00;46679.94;5044044;28;20112;-73
2023/03/15 05:23:31;;;;;;;6.00;1.55;;;;;;;-145.18;100.00;46687.75;5030213;28;20030;-73
2023/03/15 05:25:56;;;;;;;8.27;2.55;;;;;;;-145.18;100.00;46687.75;5035960;28;20052;-73
2023/03/15 05:28:23;;;;;;;14.47;2.10;;;;;;;-145.18;100.00;46689.69;5049771;28;20393;-73
2023/03/15 05:30:53;;;;;;;9.45;1.90;;;;;;;-145.18;100.00;46687.75;5050297;28;20033;-73
2023/03/15 05:33:19;;;;;;;5.90;1.92;;;;;;;-145.18;100.00;46695.56;5049478;28;20052;-74
2023/03/15 05:35:45;;;;;;;6.88;2.00;;;;;;;-145.18;100.00;46693.59;5045287;28;20197;-74
2023/03/15 05:38:14;;;;;;;4.57;1.70;;;;;;;-145.18;100.00;46683.84;5030564;28;20099;-73
2023/03/15 05:40:44;;;;;;;6.57;1.67;;;;;;;-145.18;100.00;46689.69;5012315;28;20043;-74
2023/03/15 05:43:10;;;;;;;11.77;1.90;;;;;;;-145.18;100.00;46691.66;5029435;28;20442;-74
2023/03/15 05:45:36;;;;;;;6.90;1.60;;;;;;;-145.18;100.00;46697.50;5029956;28;20100;-73
2023/03/15 05:48:01;;;;;;;4.00;1.23;;;;;;;-145.18;100.00;46691.66;5041998;28;20036;-73
2023/03/15 05:50:27;;;;;;;4.87;1.80;;;;;;;-145.18;100.00;46693.59;5050109;28;20032;-74
2023/03/15 05:52:53;;;;;;;6.07;1.53;;;;;;;-145.18;100.00;46689.69;5049432;28;20037;-74
2023/03/15 05:55:19;;;;;;;10.70;1.83;;;;;;;-145.18;100.00;46699.47;5033332;28;20044;-73
2023/03/15 05:57:45;;;;;;;7.57;1.60;;;;;;;-145.18;100.00;46699.47;5029267;28;20033;-74
2023/03/15 06:00:11;;;;;;;6.57;2.03;;;;;;;-145.18;100.00;46693.59;5026916;28;20424;-74
2023/03/15 06:02:37;;;;;;;6.72;1.50;;;;;;;-145.18;100.00;46693.59;5039550;28;20429;-74
2023/03/15 06:05:02;;;;;;;5.20;1.73;;;;;;;-145.18;100.00;46695.56;5011552;28;20048;-74
2023/03/15 06:07:28;;;;;;;8.43;1.50;;;;;;;-145.18;100.00;46703.38;5032167;28;20025;-74
2023/03/15 06:09:53;;;;;;;5.37;1.30;;;;;;;-145.18;100.00;46695.56;5038448;28;20486;-74
2023/03/15 06:12:19;;;;;;;5.73;2.10;;;;;;;-145.18;100.00;46695.56;5036986;28;20041;-74
2023/03/15 06:14:44;;;;;;;4.27;1.60;;;;;;;-145.18;100.00;46703.38;5037033;28;20105;-74
2023/03/15 06:17:10;;;;;;;12.80;1.90;;;;;;;-145.18;100.00;46701.41;5037121;28;20409;-74
2023/03/15 06:19:35;;;;;;;7.40;2.40;;;;;;;-145.18;100.00;46701.41;5037433;28;20033;-74
2023/03/15 06:22:00;;;;;;;8.10;2.13;;;;;;;-145.18;100.00;46699.47;5036282;28;20030;-74
2023/03/15 06:24:26;;;;;;;6.07;1.60;;;;;;;-145.18;100.00;46695.56;5039182;28;20476;-74
2023/03/15 06:26:53;;;;;;;4.53;1.80;;;;;;;-145.18;100.00;46703.38;5018765;28;20033;-74
2023/03/15 06:29:20;;;;;;;6.60;1.45;;;;;;;-145.18;100.00;46703.38;5038553;28;20033;-73
2023/03/15 06:31:48;;;;;;;8.43;1.80;;;;;;;-145.18;100.00;46701.41;5040918;28;20070;-73
2023/03/15 06:34:13;;;;;;;11.93;2.17;;;;;;;-145.18;100.00;46707.28;5038648;28;20029;-73
2023/03/15 06:36:41;;;;;;;8.87;1.97;;;;;;;-145.18;100.00;46701.41;5041055;28;20123;-74
2023/03/15 06:39:11;;;;;;;5.50;1.80;;;;;;;-145.18;100.00;46697.50;5037093;28;20103;-73
2023/03/15 06:41:37;;;;;;;8.90;1.80;;;;;;;-145.18;100.00;46705.31;5051625;28;20044;-73
2023/03/15 06:44:04;;;;;;;6.13;1.75;;;;;;;-145.18;100.00;46699.47;5052705;28;20037;-74
2023/03/15 06:46:29;;;;;;;10.25;1.73;;;;;;;-145.18;100.00;46699.47;5053057;28;20503;-74
2023/03/15 06:48:55;;;;;;;6.40;1.70;;;;;;;-145.18;100.00;46699.47;5052914;28;20029;-73
2023/03/15 06:51:21;;;;;;;8.10;1.97;;;;;;;-145.18;100.00;46701.41;5052488;28;20547;-73
2023/03/15 06:53:47;;;;;;;11.05;2.50;;;;;;;-145.18;100.00;46707.28;5052867;28;20033;-73
2023/03/15 06:56:12;;;;;;;9.17;1.80;;;;;;;-145.18;100.00;46697.50;5052806;28;20036;-73
2023/03/15 06:58:38;;;;;;;6.83;1.67;;;;;;;-145.18;100.00;46697.50;5052439;28;20031;-73
2023/03/15 07:01:03;;;;;;;4.27;2.00;;;;;;;-145.18;100.00;46701.41;5052583;28;20036;-74
2023/03/15 07:03:29;;;;;;;9.23;2.10;;;;;;;-145.18;100.00;46695.56;5037966;28;20628;-74
2023/03/15 07:05:54;;;;;;;12.20;2.83;;;;;;;-145.18;100.00;46699.47;5037775;28;20733;-74
2023/03/15 07:08:22;;;;;;;7.47;2.20;;;;;;;-145.18;100.00;46699.47;5033372;28;20044;-73
2023/03/15 07:10:49;;;;;;;4.70;2.10;;;;;;;-145.18;100.00;46695.56;5047896;28;20029;-74
2023/03/15 07:13:15;;;;;;;7.65;2.75;;;;;;;-145.18;100.00;46691.66;5039739;28;20029;-76
2023/03/15 07:15:41;;;;;;;8.23;2.65;;;;;;;-145.18;100.00;46689.69;5043233;28;20409;-75
2023/03/15 07:18:06;;;;;;;8.87;2.73;;;;;;;-145.18;100.00;46689.69;5051719;28;20025;-75
2023/03/15 07:20:32;;;;;;;7.57;2.80;;;;;;;-145.18;100.00;46693.59;5050726;28;20033;-76
2023/03/15 07:22:57;;;;;;;9.10;3.07;;;;;;;-145.18;100.00;46685.78;5050709;28;20035;-76
2023/03/15 07:25:24;;;;;;;8.43;2.40;;;;;;;-145.18;100.00;46685.78;5050199;28;20037;-73
2023/03/15 07:27:50;;;;;;;7.45;2.28;;;;;;;-145.18;100.00;46691.66;5027477;28;20075;-75
2023/03/15 07:30:16;;;;;;;5.45;2.25;;;;;;;-145.18;100.00;46685.78;5051856;28;20044;-74
2023/03/15 07:32:42;;;;;;;9.63;2.53;;;;;;;-145.18;100.00;46685.78;5052034;28;20366;-74
2023/03/15 07:35:08;;;;;;;8.90;2.47;;;;;;;-145.18;100.00;46691.66;5051854;28;20052;-74
2023/03/15 07:37:33;;;;;;;9.70;3.40;;;;;;;-145.18;100.00;46683.84;5052119;28;20034;-74
2023/03/15 07:40:08;;;;;;;10.37;2.63;;;;;;;-145.18;100.00;46691.66;5051724;28;20496;-78
2023/03/15 07:42:36;;;;;;;8.52;1.98;;;;;;;-145.18;100.00;46683.84;5050754;28;20496;-74
2023/03/15 07:45:03;;;;;;;9.60;2.10;;;;;;;-145.18;100.00;46687.75;5051688;28;20029;-76
2023/03/15 07:47:29;;;;;;;8.93;2.77;;;;;;;-145.18;100.00;46687.75;5052007;28;20420;-77
2023/03/15 07:49:55;;;;;;;13.37;2.03;;;;;;;-145.18;100.00;46687.75;5050887;28;20286;-76
2023/03/15 07:52:21;;;;;;;6.87;1.57;;;;;;;-145.18;100.00;46685.78;5051319;28;20037;-77
2023/03/15 07:54:46;;;;;;;7.93;1.70;;;;;;;-145.18;100.00;46683.84;5051752;28;20471;-76
2023/03/15 07:57:12;;;;;;;14.37;2.43;;;;;;;-145.18;100.00;46676.03;5051595;28;20499;-76
2023/03/15 07:59:37;;;;;;;6.77;1.70;;;;;;;-145.18;100.00;46668.22;5051233;28;20021;-76
2023/03/15 08:02:03;;;;;;;9.40;1.97;;;;;;;-145.18;100.00;46658.44;5051311;28;20039;-76
2023/03/15 08:04:28;;;;;;;13.17;2.33;;;;;;;-145.18;100.00;46636.94;5051331;28;20048;-76
2023/03/15 08:06:53;;;;;;;6.63;1.53;;;;;;;-145.18;100.00;46625.22;5033506;28;20120;-76
2023/03/15 08:09:19;;;;;;;4.53;1.57;;;;;;;-145.18;100.00;46597.88;5051098;28;20043;-76
2023/03/15 08:11:44;;;;;;;10.77;1.93;;;;;;;-145.18;100.00;46582.25;5051144;28;20036;-76
2023/03/15 08:14:09;;;;;;;10.97;2.00;;;;;;;-145.18;100.00;46574.44;5050997;28;20061;-76
2023/03/15 08:16:35;;;;;;;6.63;1.47;;;;;;;-145.18;100.00;46566.63;5051310;28;20037;-77
2023/03/15 08:19:00;;;;;;;6.60;1.67;;;;;;;-145.18;100.00;46568.59;5050846;28;20385;-77
2023/03/15 08:21:25;;;;;;;9.50;1.47;;;;;;;-145.18;100.00;46570.53;5051327;28;20024;-76
2023/03/15 08:23:51;;;;;;;4.50;1.40;;;;;;;-145.18;100.00;46576.41;5050775;28;20076;-76
2023/03/15 08:26:16;;;;;;;5.43;1.77;;;;;;;-145.18;100.00;46578.34;5033183;28;20064;-76
2023/03/15 08:28:42;;;;;;;8.87;1.87;;;;;;;-145.18;100.00;46578.34;5050828;28;20107;-76
2023/03/15 08:31:08;;;;;;;10.03;1.80;;;;;;;-145.18;100.00;46582.25;5032880;28;20029;-76
2023/03/15 08:33:34;;;;;;;10.07;2.20;;;;;;;-145.18;100.00;46586.16;5050535;28;20707;-77
2023/03/15 08:36:00;;;;;;;12.80;1.90;;;;;;;-145.18;100.00;46597.88;5050245;28;20282;-77
2023/03/15 08:38:25;;;;;;;13.57;1.80;;;;;;;-145.18;100.00;46609.59;5049475;28;20092;-77
2023/03/15 08:40:58;;;;;;;17.33;2.07;;;;;;;-145.18;100.00;46631.09;5050914;28;20544;-77
2023/03/15 08:43:23;;;;;;;10.27;1.90;;;;;;;-145.18;100.00;46642.81;5050279;28;20028;-77
2023/03/15 08:45:49;;;;;;;8.00;1.47;;;;;;;-145.18;100.00;46652.59;5050800;28;20270;-76
2023/03/15 08:48:14;;;;;;;12.43;1.93;;;;;;;-145.18;100.00;46670.16;5050475;28;20033;-77
2023/03/15 08:50:40;;;;;;;6.83;1.63;;;;;;;-145.18;100.00;46701.41;5050797;28;20048;-77
2023/03/15 08:53:05;;;;;;;8.20;1.80;;;;;;;-145.18;100.00;46722.91;5047522;28;20100;-77
2023/03/15 08:55:30;;;;;;;6.60;1.70;;;;;;;-145.18;100.00;46738.53;5030526;28;20044;-77
2023/03/15 08:57:56;;;;;;;9.30;1.70;;;;;;;-145.18;100.00;46750.25;5030470;28;20424;-77
2023/03/15 09:00:24;;;;;;;13.73;1.87;;;;;;;-145.18;100.00;46783.47;5030139;28;20061;-76
2023/03/15 09:02:53;;;;;;;6.97;1.70;;;;;;;-145.18;100.00;46820.56;5030537;28;20508;-76
2023/03/15 09:05:20;;;;;;;12.20;1.60;;;;;;;-145.18;100.00;46824.47;5030280;28;20283;-76
2023/03/15 09:07:46;;;;;;;8.73;2.20;;;;;;;-145.18;100.00;46847.91;5030345;28;20333;-77
2023/03/15 09:10:14;;;;;;;11.53;1.80;;;;;;;-145.18;100.00;46851.81;5029922;28;20786;-76
2023/03/15 09:12:45;;;;;;;4.17;1.23;;;;;;;-145.18;100.00;46879.19;5030406;28;20369;-76
2023/03/15 09:15:11;;;;;;;5.80;1.40;;;;;;;-145.18;100.00;46879.19;5030225;28;20329;-75
2023/03/15 09:17:41;;;;;;;10.03;1.47;;;;;;;-145.18;100.00;46914.34;5030619;28;20282;-75
2023/03/15 09:20:13;;;;;;;10.07;1.83;;;;;;;-145.18;100.00;47117.50;5029709;28;20635;-76
2023/03/15 09:22:40;;;;;;;9.47;1.93;;;;;;;-145.18;100.00;47541.44;5030503;28;20318;-76
2023/03/15 09:25:06;;;;;;;5.33;1.73;;;;;;;-145.18;100.00;47652.81;5029990;28;20369;-76
2023/03/15 09:27:32;;;;;;;6.20;1.33;;;;;;;-145.18;100.00;47652.81;5030455;28;20326;-77
2023/03/15 09:29:57;;;;;;;13.13;2.20;;;;;;;-145.18;100.00;47660.63;5029774;28;20263;-76
2023/03/15 09:32:23;;;;;;;5.83;0.93;;;;;;;-145.18;100.00;47600.06;5030055;28;20052;-76
2023/03/15 09:34:48;;;;;;;8.10;1.10;;;;;;;-145.18;100.00;47566.84;5029886;28;20033;-76
2023/03/15 09:37:14;;;;;;;7.40;1.03;;;;;;;-145.18;100.00;47594.19;5030095;28;20478;-76
2023/03/15 09:39:39;;;;;;;7.90;1.00;;;;;;;-145.18;100.00;47582.47;5029822;28;20732;-76
2023/03/15 09:42:15;;;;;;;7.60;1.77;;;;;;;-145.18;100.00;47574.66;5030112;28;20067;-77
2023/03/15 09:44:47;;;;;;;9.57;1.03;;;;;;;-145.18;100.00;47566.84;5029937;28;20108;-77
2023/03/15 09:47:36;;;;;;;6.40;1.00;;;;;;;-145.18;100.00;47562.94;5030001;28;20263;-77
2023/03/15 09:50:01;;;;;;;4.37;0.77;;;;;;;-145.18;100.00;47568.81;5029810;28;20758;-77
2023/03/15 09:52:39;;;;;;;8.53;0.90;;;;;;;-145.18;100.00;47562.94;5029895;28;20321;-77
2023/03/15 09:55:17;;;;;;;7.00;1.10;;;;;;;-145.18;100.00;47557.06;5011698;28;20489;-77
2023/03/15 09:57:49;;;;;;;6.27;0.97;;;;;;;-145.18;100.00;47519.97;5030033;28;20270;-77
2023/03/15 10:00:20;;;;;;;17.50;2.20;;;;;;;-145.18;100.00;47545.34;5029555;28;20341;-77
2023/03/15 10:02:59;;;;;;;2.17;0.70;;;;;;;-145.18;100.00;47543.41;5029802;28;20357;-77
2023/03/15 10:05:36;;;;;;;12.53;1.43;;;;;;;-145.18;100.00;47527.78;5029387;28;20325;-77
2023/03/15 10:08:07;;;;;;;7.70;0.90;;;;;;;-145.18;100.00;47529.72;5033949;28;20271;-77
2023/03/15 10:10:38;;;;;;;8.03;1.10;;;;;;;-145.18;100.00;47521.91;5033765;28;20358;-77
2023/03/15 10:13:37;;;;;;;5.07;1.10;;;;;;;-145.18;100.00;47516.06;5033447;28;20821;-77
2023/03/15 10:16:39;;;;;;;6.83;1.00;;;;;;;-145.18;100.00;47516.06;5033503;28;20274;-77
2023/03/15 10:19:24;;;;;;;8.13;1.27;;;;;;;-145.18;100.00;47492.59;5002381;28;20279;-77
2023/03/15 10:22:06;;;;;;;5.80;0.90;;;;;;;-145.18;100.00;47498.47;5033630;28;20293;-77
2023/03/15 10:24:42;;;;;;;4.30;0.90;;;;;;;-145.18;100.00;47506.28;5033781;28;20341;-77
2023/03/15 10:27:48;;;;;;;7.77;0.87;;;;;;;-145.18;100.00;47467.22;5033097;28;20266;-77
2023/03/15 10:30:27;;;;;;;4.83;0.97;;;;;;;-145.18;100.00;47471.13;5032642;28;20303;-77
2023/03/15 10:33:04;;;;;;;8.60;1.20;;;;;;;-145.18;100.00;47459.41;5033348;28;20789;-77
2023/03/15 10:35:30;;;;;;;4.63;0.80;;;;;;;-145.18;100.00;47467.22;5033172;28;20279;-77
2023/03/15 10:37:57;;;;;;;3.70;0.67;;;;;;;-145.18;100.00;47439.84;5032906;28;20282;-77
2023/03/15 10:40:42;;;;;;;10.13;1.10;;;;;;;-145.18;100.00;47453.53;5033080;28;20283;-77
2023/03/15 10:43:20;;;;;;;13.13;1.40;;;;;;;-145.18;100.00;47494.56;5033184;28;20278;-77
2023/03/15 10:46:10;;;;;;;3.97;1.00;;;;;;;-145.18;100.00;47467.22;5032908;28;20265;-77
2023/03/15 10:48:39;;;;;;;7.33;0.70;;;;;;;-145.18;100.00;47455.47;5033078;28;20259;-77
2023/03/15 10:51:14;;;;;;;7.17;1.00;;;;;;;-145.18;100.00;47441.81;5032944;28;20810;-77
2023/03/15 10:53:57;;;;;;;;;;;;;;;-145.18;100.00;47441.81;5033264;28;20297;-78
2023/03/15 10:56:25;;;;;;;10.80;1.00;;;;;;;-145.18;100.00;47492.59;5040352;28;19917;-77
2023/03/15 10:58:54;;;;;;;4.80;0.70;;;;;;;-145.18;100.00;47457.44;5032037;28;20255;-77
2023/03/15 11:01:33;;;;;;;7.30;1.13;;;;;;;-145.18;100.00;47519.97;5032051;28;20266;-77
2023/03/15 11:03:59;;;;;;;11.10;1.30;;;;;;;-145.18;100.00;47523.88;5031487;28;20698;-77
2023/03/15 11:06:27;;;;;;;21.53;2.20;;;;;;;-145.18;100.00;47539.50;5031169;28;20267;-78
2023/03/15 11:09:05;;;;;;;7.77;1.27;;;;;;;-145.18;100.00;47531.69;5031408;28;20278;-77
2023/03/15 11:11:56;;;;;;;8.07;1.03;;;;;;;-145.18;100.00;47463.31;5031721;28;20278;-78
2023/03/15 11:14:21;;;;;;;6.90;1.00;;;;;;;-145.18;100.00;47453.53;5031161;28;20277;-78
2023/03/15 11:16:55;;;;;;;6.73;0.90;;;;;;;-145.18;100.00;47434.00;5031268;28;20271;-78